Time;durP1;ratioP1;P1;durP2;ratioP2;P2;SDS_P1;SDS_P2;PMS_P1;PMS_P2;Temp;Humidity;BMP_temperature;BMP_pressure;BME280_temperature;BME280_humidity;BME280_pressure;Samples;Min_cycle;Max_cycle;Signal;HPM_P1;HPM_P2
2023/02/01 00:00:37;;;;;;;;;;;;;;;11.10;45.86;100426.63;4901653;28;127480;-67
2023/02/01 00:03:05;;;;;;;;;;;;;;;11.10;45.54;100432.81;4919438;28;107739;-66
2023/02/01 00:05:31;;;;;;;;;;;;;;;11.11;45.65;100430.91;4937909;28;98444;-67
2023/02/01 00:07:57;;;;;;;;;;;;;;;11.12;45.85;100419.03;4920632;28;125730;-67
2023/02/01 00:10:23;;;;;;;;;;;;;;;11.11;45.53;100434.44;4933712;28;128658;-67
2023/02/01 00:12:48;;;;;;;;;;;;;;;11.12;45.50;100430.66;4936533;28;127029;-67
2023/02/01 00:15:15;;;;;;;;;;;;;;;11.15;45.37;100434.69;4920620;28;115051;-66
2023/02/01 00:17:41;;;;;;;;;;;;;;;11.15;45.60;100429.31;4924081;28;98261;-66
2023/02/01 00:20:07;;;;;;;;;;;;;;;11.15;45.79;100424.72;4933200;28;127867;-67
2023/02/01 00:22:33;;;;;;;;;;;;;;;11.16;45.75;100422.81;4935819;28;98061;-66
2023/02/01 00:24:59;;;;;;;;;;;;;;;11.16;45.68;100434.44;4935923;28;97855;-66
2023/02/01 00:27:25;;;;;;;;;;;;;;;11.16;45.33;100428.22;4939308;28;100597;-66
2023/02/01 00:29:51;;;;;;;;;;;;;;;11.17;45.80;100427.97;4935936;28;116897;-66
2023/02/01 00:32:17;;;;;;;;;;;;;;;11.16;45.31;100431.75;4920530;28;98306;-66
2023/02/01 00:34:43;;;;;;;;;;;;;;;11.17;45.89;100429.84;4923248;28;117224;-66
2023/02/01 00:37:09;;;;;;;;;;;;;;;11.15;45.43;100435.50;4922315;28;98206;-66
2023/02/01 00:39:35;;;;;;;;;;;;;;;11.17;45.74;100430.66;4936000;28;125533;-66
2023/02/01 00:42:02;;;;;;;;;;;;;;;11.17;45.65;100427.16;4918591;28;127978;-66
2023/02/01 00:44:28;;;;;;;;;;;;;;;11.18;45.63;100434.16;4934997;28;97815;-66
2023/02/01 00:46:53;;;;;;;;;;;;;;;11.17;45.46;100424.47;4937625;28;98268;-66
2023/02/01 00:49:19;;;;;;;;;;;;;;;11.17;45.47;100436.06;4919658;28;128141;-66
2023/02/01 00:51:45;;;;;;;;;;;;;;;11.17;45.62;100430.66;4935173;28;98057;-66
2023/02/01 00:54:11;;;;;;;;;;;;;;;11.18;45.28;100431.47;4936681;28;112337;-66
2023/02/01 00:56:37;;;;;;;;;;;;;;;11.17;45.62;100429.84;4920722;28;128455;-66
2023/02/01 00:59:03;;;;;;;;;;;;;;;11.18;45.80;100426.06;4936665;28;124465;-66
2023/02/01 01:01:29;;;;;;;;;;;;;;;11.18;45.96;100423.38;4919144;28;127693;-66
2023/02/01 01:03:56;;;;;;;;;;;;;;;11.18;45.58;100434.97;4935117;28;117127;-66
2023/02/01 01:06:24;;;;;;;;;;;;;;;11.17;45.60;100435.25;4919072;28;110207;-65
2023/02/01 01:08:54;;;;;;;;;;;;;;;11.18;45.66;100429.56;4936626;28;97941;-67
2023/02/01 01:11:23;;;;;;;;;;;;;;;11.18;45.61;100431.47;4920570;28;98197;-66
2023/02/01 01:13:50;;;;;;;;;;;;;;;11.18;45.75;100431.47;4906937;28;98482;-66
2023/02/01 01:16:16;;;;;;;;;;;;;;;11.17;45.50;100435.25;4905721;28;99462;-66
2023/02/01 01:18:42;;;;;;;;;;;;;;;11.17;45.90;100433.34;4937284;28;118038;-67
2023/02/01 01:21:08;;;;;;;;;;;;;;;11.16;45.56;100434.44;4926940;28;98017;-66
2023/02/01 01:23:35;;;;;;;;;;;;;;;11.14;45.20;100431.19;4940985;28;98053;-66
2023/02/01 01:26:04;;;;;;;;;;;;;;;11.14;45.65;100428.50;4905711;28;98121;-65
2023/02/01 01:28:30;;;;;;;;;;;;;;;11.13;45.84;100429.59;4936250;28;125566;-66
2023/02/01 01:30:56;;;;;;;;;;;;;;;11.12;45.44;100430.66;4924436;28;127463;-66
2023/02/01 01:33:22;;;;;;;;;;;;;;;11.12;45.82;100424.44;4921736;28;111554;-65
2023/02/01 01:35:47;;;;;;;;;;;;;;;11.10;45.85;100423.91;4924925;28;97916;-66
2023/02/01 01:38:13;;;;;;;;;;;;;;;11.08;45.51;100424.16;4923006;28;128623;-67
2023/02/01 01:40:39;;;;;;;;;;;;;;;11.07;45.67;100426.06;4923516;28;128099;-67
2023/02/01 01:43:13;;;;;;;;;;;;;;;11.06;45.44;100419.06;4928512;28;112663;-67
2023/02/01 01:45:39;;;;;;;;;;;;;;;11.05;45.79;100416.66;4939458;28;98383;-67
2023/02/01 01:48:16;;;;;;;;;;;;;;;11.03;45.59;100419.59;4923557;28;127420;-66
2023/02/01 01:50:57;;;;;;;;;;;;;;;11.02;45.83;100431.47;4926082;28;112583;-67
2023/02/01 01:53:26;;;;;;;;;;;;;;;11.02;45.74;100419.88;4925469;28;98879;-66
2023/02/01 01:55:52;;;;;;;;;;;;;;;11.00;45.83;100414.78;4923571;28;116112;-66
2023/02/01 01:58:20;;;;;;;;;;;;;;;10.99;45.46;100410.44;4922900;28;127681;-66
2023/02/01 02:00:46;;;;;;;;;;;;;;;11.00;45.94;100405.84;4922371;28;113948;-67
2023/02/01 02:03:25;;;;;;;;;;;;;;;10.99;45.40;100399.66;4921758;28;117604;-67
2023/02/01 02:05:51;;;;;;;;;;;;;;;10.99;45.84;100398.84;4924559;28;121475;-67
2023/02/01 02:08:20;;;;;;;;;;;;;;;10.98;45.49;100389.94;4909123;28;100620;-67
2023/02/01 02:10:59;;;;;;;;;;;;;;;10.98;45.49;100395.34;4921042;28;98219;-66
2023/02/01 02:13:30;;;;;;;;;;;;;;;10.96;45.54;100392.09;4922339;28;98184;-67
2023/02/01 02:16:31;;;;;;;;;;;;;;;10.96;45.59;100385.88;4938005;28;98742;-67
2023/02/01 02:19:35;;;;;;;;;;;;;;;10.95;45.84;100382.38;4935806;28;98440;-66
2023/02/01 02:22:29;;;;;;;;;;;;;;;10.94;45.78;100391.56;4939515;28;100309;-66
2023/02/01 02:25:12;;;;;;;;;;;;;;;10.93;45.59;100383.75;4936229;28;111421;-66
2023/02/01 02:27:56;;;;;;;;;;;;;;;10.92;45.74;100376.72;4925420;28;100390;-66
2023/02/01 02:30:39;;;;;;;;;;;;;;;10.90;45.70;100374.31;4938157;28;98043;-67
2023/02/01 02:33:36;;;;;;;;;;;;;;;10.90;45.68;100385.09;4921198;28;125295;-66
2023/02/01 02:36:06;;;;;;;;;;;;;;;10.88;46.08;100384.53;4955497;28;98078;-66
2023/02/01 02:38:52;;;;;;;;;;;;;;;10.88;45.68;100384.53;4941216;28;99362;-66
2023/02/01 02:47:45;;;;;;;;;;;;;;;10.85;45.51;100389.69;4939313;28;98035;-67
2023/02/01 03:04:25;;;;;;;;;;;;;;;10.80;45.50;100379.69;4924135;28;98028;-66
2023/02/01 03:06:52;;;;;;;;;;;;;;;10.80;45.49;100393.19;4919899;28;124156;-67
2023/02/01 03:09:36;;;;;;;;;;;;;;;10.81;45.60;100395.63;4923150;28;98151;-66
2023/02/01 03:14:53;;;;;;;;;;;;;;;10.82;45.77;100393.72;4938253;28;98240;-66
2023/02/01 03:17:23;;;;;;;;;;;;;;;10.84;45.42;100401.53;4905997;28;128019;-66
2023/02/01 03:19:50;;;;;;;;;;;;;;;10.84;45.49;100393.44;4923342;28;107474;-67
2023/02/01 03:22:26;;;;;;;;;;;;;;;10.83;45.47;100389.94;4921142;28;98183;-67
2023/02/01 03:24:56;;;;;;;;;;;;;;;10.85;45.46;100385.09;4923579;28;105036;-66
2023/02/01 03:27:40;;;;;;;;;;;;;;;10.85;45.94;100385.09;4922858;28;98120;-66
2023/02/01 03:30:09;;;;;;;;;;;;;;;10.86;45.50;100383.22;4922048;28;104727;-66
2023/02/01 03:32:57;;;;;;;;;;;;;;;10.86;45.48;100385.91;4939025;28;97911;-66
2023/02/01 03:35:45;;;;;;;;;;;;;;;10.85;45.55;100378.91;4926095;28;97850;-66
2023/02/01 03:38:21;;;;;;;;;;;;;;;10.83;45.86;100384.56;4921401;28;98075;-67
2023/02/01 03:40:53;;;;;;;;;;;;;;;10.80;45.73;100377.81;4937853;28;97963;-66
2023/02/01 03:43:20;;;;;;;;;;;;;;;10.78;45.60;100377.28;4922047;28;100421;-67
2023/02/01 03:45:49;;;;;;;;;;;;;;;10.78;45.78;100388.06;4921891;28;121524;-66
2023/02/01 03:48:15;;;;;;;;;;;;;;;10.76;45.48;100386.72;4918177;28;125151;-67
2023/02/01 03:50:45;;;;;;;;;;;;;;;10.77;45.71;100382.97;4923185;28;111966;-66
2023/02/01 03:53:14;;;;;;;;;;;;;;;10.76;45.85;100379.44;4934383;28;119421;-67
2023/02/01 03:55:40;;;;;;;;;;;;;;;10.75;45.40;100377.81;4937660;28;98397;-66
2023/02/01 03:58:16;;;;;;;;;;;;;;;10.75;46.09;100372.44;4907495;28;98180;-67
2023/02/01 04:00:56;;;;;;;;;;;;;;;10.75;45.43;100371.63;4905622;28;98080;-66
2023/02/01 04:03:22;;;;;;;;;;;;;;;10.75;45.38;100364.34;4922104;28;98435;-66
2023/02/01 04:05:49;;;;;;;;;;;;;;;10.74;45.94;100367.31;4912784;28;98272;-66
2023/02/01 04:08:15;;;;;;;;;;;;;;;10.73;45.76;100358.44;4936728;28;123097;-67
2023/02/01 04:10:41;;;;;;;;;;;;;;;10.74;45.73;100356.53;4933503;28;98726;-65
2023/02/01 04:13:07;;;;;;;;;;;;;;;10.74;45.67;100349.25;4935238;28;106147;-66
2023/02/01 04:15:34;;;;;;;;;;;;;;;10.74;45.53;100351.94;4922561;28;111717;-66
2023/02/01 04:18:00;;;;;;;;;;;;;;;10.74;45.42;100338.47;4920086;28;98189;-66
2023/02/01 04:20:26;;;;;;;;;;;;;;;10.75;45.42;100341.97;4923928;28;104709;-67
2023/02/01 04:22:52;;;;;;;;;;;;;;;10.74;45.47;100330.38;4936969;28;98303;-66
2023/02/01 04:25:18;;;;;;;;;;;;;;;10.74;45.50;100335.78;4908978;28;99558;-67
2023/02/01 04:27:44;;;;;;;;;;;;;;;10.75;45.80;100341.97;4935528;28;99747;-66
2023/02/01 04:30:10;;;;;;;;;;;;;;;10.75;45.49;100339.28;4920181;28;117384;-66
2023/02/01 04:32:37;;;;;;;;;;;;;;;10.75;45.57;100334.69;4922978;28;116727;-67
2023/02/01 04:35:03;;;;;;;;;;;;;;;10.77;45.50;100326.34;4937283;28;110626;-67
2023/02/01 04:37:29;;;;;;;;;;;;;;;10.77;45.44;100326.34;4908051;28;98057;-67
2023/02/01 04:39:55;;;;;;;;;;;;;;;10.78;45.47;100330.66;4918400;28;117224;-66
2023/02/01 04:42:21;;;;;;;;;;;;;;;10.78;45.32;100326.06;4920496;28;128712;-66
2023/02/01 04:44:47;;;;;;;;;;;;;;;10.80;45.46;100331.16;4920560;28;127185;-66
2023/02/01 04:47:14;;;;;;;;;;;;;;;10.81;45.33;100319.31;4919013;28;99034;-66
2023/02/01 04:49:40;;;;;;;;;;;;;;;10.82;45.74;100320.94;4952253;28;98105;-67
2023/02/01 04:52:06;;;;;;;;;;;;;;;10.81;45.63;100312.03;4921125;28;127623;-67
2023/02/01 04:54:32;;;;;;;;;;;;;;;10.83;45.18;100317.16;4923319;28;100735;-66
2023/02/01 04:56:57;;;;;;;;;;;;;;;10.83;45.46;100317.16;4924780;28;127145;-67
2023/02/01 04:59:23;;;;;;;;;;;;;;;10.85;45.18;100315.00;4907905;28;117087;-66
2023/02/01 05:01:49;;;;;;;;;;;;;;;10.87;45.70;100314.72;4938769;28;126570;-66
2023/02/01 05:04:18;;;;;;;;;;;;;;;10.87;45.38;100312.03;4924260;28;127853;-66
2023/02/01 05:06:44;;;;;;;;;;;;;;;10.88;45.82;100309.03;4908983;28;98041;-66
2023/02/01 05:09:10;;;;;;;;;;;;;;;10.89;45.61;100293.69;4937971;28;105796;-66
2023/02/01 05:14:20;;;;;;;;;;;;;;;10.90;45.59;100282.63;4923668;28;98119;-66
2023/02/01 05:16:46;;;;;;;;;;;;;;;10.91;45.68;100291.50;4924020;28;128200;-66
2023/02/01 05:19:12;;;;;;;;;;;;;;;10.91;45.40;100294.22;4923380;28;116242;-67
2023/02/01 05:21:38;;;;;;;;;;;;;;;10.92;45.67;100293.94;4921866;28;129414;-67
2023/02/01 05:24:10;;;;;;;;;;;;;;;10.93;45.71;100295.56;4906518;28;127571;-67
2023/02/01 05:26:40;;;;;;;;;;;;;;;10.93;45.33;100292.88;4941597;28;98095;-66
2023/02/01 05:29:06;;;;;;;;;;;;;;;10.94;45.49;100290.97;4939499;28;98326;-66
2023/02/01 05:31:32;;;;;;;;;;;;;;;10.95;45.46;100289.88;4921849;28;125639;-67
2023/02/01 05:33:58;;;;;;;;;;;;;;;10.95;45.41;100289.88;4937215;28;120863;-66
2023/02/01 05:36:23;;;;;;;;;;;;;;;10.95;45.70;100288.00;4921028;28;98083;-67
2023/02/01 05:38:49;;;;;;;;;;;;;;;10.97;45.45;100293.13;4921328;28;98532;-66
2023/02/01 05:41:15;;;;;;;;;;;;;;;10.96;45.49;100280.72;4899958;28;127930;-67
2023/02/01 05:43:41;;;;;;;;;;;;;;;10.97;45.30;100268.84;4918061;28;127765;-67
2023/02/01 05:46:10;;;;;;;;;;;;;;;10.97;45.62;100274.25;4903162;28;127362;-66
2023/02/01 05:48:36;;;;;;;;;;;;;;;10.99;45.46;100269.38;4921901;28;98122;-67
2023/02/01 05:51:02;;;;;;;;;;;;;;;10.98;45.67;100268.56;4939008;28;126060;-66
2023/02/01 05:53:28;;;;;;;;;;;;;;;10.99;45.62;100272.88;4938168;28;128616;-66
2023/02/01 05:55:54;;;;;;;;;;;;;;;11.01;45.84;100267.22;4939519;28;127751;-67
2023/02/01 05:58:19;;;;;;;;;;;;;;;11.01;45.71;100267.22;4908710;28;116670;-66
2023/02/01 06:00:45;;;;;;;;;;;;;;;11.01;45.32;100269.91;4922542;28;99711;-66
2023/02/01 06:03:11;;;;;;;;;;;;;;;11.00;45.70;100262.91;4920343;28;129435;-66
2023/02/01 06:05:37;;;;;;;;;;;;;;;11.00;45.69;100261.03;4926029;28;115567;-65
2023/02/01 06:08:03;;;;;;;;;;;;;;;11.01;45.70;100264.53;4955059;28;98132;-66
2023/02/01 06:10:29;;;;;;;;;;;;;;;11.00;45.39;100258.34;4937855;28;115998;-67
2023/02/01 06:12:55;;;;;;;;;;;;;;;11.01;45.68;100257.25;4921193;28;114875;-66
2023/02/01 06:15:21;;;;;;;;;;;;;;;11.00;45.62;100257.50;4908189;28;117551;-66
2023/02/01 06:17:47;;;;;;;;;;;;;;;11.01;45.58;100261.84;4935322;28;117852;-65
2023/02/01 06:20:14;;;;;;;;;;;;;;;11.01;45.65;100261.84;4935498;28;123200;-66
2023/02/01 06:22:40;;;;;;;;;;;;;;;11.00;45.64;100261.03;4924989;28;98122;-66
2023/02/01 06:25:07;;;;;;;;;;;;;;;11.01;45.59;100256.44;4922342;28;101863;-66
2023/02/01 06:27:34;;;;;;;;;;;;;;;11.01;45.44;100262.63;4906324;28;97974;-66
2023/02/01 06:30:00;;;;;;;;;;;;;;;11.00;45.76;100260.19;4924985;28;98051;-66
2023/02/01 06:32:25;;;;;;;;;;;;;;;11.01;45.74;100259.13;4924249;28;128118;-66
2023/02/01 06:34:55;;;;;;;;;;;;;;;11.00;45.48;100258.34;4920061;28;123525;-66
2023/02/01 06:37:22;;;;;;;;;;;;;;;11.00;45.57;100260.19;4924073;28;97833;-66
2023/02/01 06:39:48;;;;;;;;;;;;;;;11.00;45.38;100249.41;4922057;28;98441;-66
2023/02/01 06:42:14;;;;;;;;;;;;;;;10.99;45.62;100254.00;4905186;28;121038;-66
2023/02/01 06:44:40;;;;;;;;;;;;;;;10.98;45.46;100249.69;4921831;28;100419;-66
2023/02/01 06:47:06;;;;;;;;;;;;;;;10.98;45.45;100254.28;4923838;28;115608;-66
2023/02/01 06:49:32;;;;;;;;;;;;;;;10.97;45.56;100253.47;4935742;28;99110;-67
2023/02/01 06:52:00;;;;;;;;;;;;;;;10.98;45.41;100251.59;4939420;28;99427;-66
2023/02/01 06:54:26;;;;;;;;;;;;;;;10.97;45.33;100250.78;4921463;28;98099;-66
2023/02/01 06:56:52;;;;;;;;;;;;;;;10.98;45.77;100251.59;4923369;28;97880;-67
2023/02/01 06:59:18;;;;;;;;;;;;;;;11.01;45.92;100243.75;4936527;28;127590;-67
2023/02/01 07:01:44;;;;;;;;;;;;;;;11.10;45.37;100235.09;4917107;28;128066;-66
2023/02/01 07:04:13;;;;;;;;;;;;;;;11.19;45.65;100219.94;4905446;28;127978;-66
2023/02/01 07:06:39;;;;;;;;;;;;;;;11.25;45.51;100226.94;4921084;28;116617;-67
2023/02/01 07:09:05;;;;;;;;;;;;;;;11.29;45.56;100223.41;4938722;28;98188;-66
2023/02/01 07:11:31;;;;;;;;;;;;;;;11.33;45.44;100231.75;4920381;28;98172;-66
2023/02/01 07:13:58;;;;;;;;;;;;;;;11.39;45.72;100232.50;4922601;28;98509;-66
2023/02/01 07:16:23;;;;;;;;;;;;;;;11.42;45.36;100226.56;4938551;28;97955;-68
2023/02/01 07:18:50;;;;;;;;;;;;;;;11.44;45.75;100237.91;4937478;28;97890;-67
2023/02/01 07:21:16;;;;;;;;;;;;;;;11.45;45.68;100234.91;4937973;28;98148;-67
2023/02/01 07:23:42;;;;;;;;;;;;;;;11.46;45.55;100244.63;4920969;28;127576;-66
2023/02/01 07:26:09;;;;;;;;;;;;;;;11.49;45.75;100233.28;4923272;28;117296;-65
2023/02/01 07:28:35;;;;;;;;;;;;;;;11.51;45.33;100241.09;4905161;28;99834;-65
2023/02/01 07:31:09;;;;;;;;;;;;;;;11.51;45.67;100239.22;4937403;28;118813;-65
2023/02/01 07:33:35;;;;;;;;;;;;;;;11.54;45.51;100235.94;4922683;28;113537;-65
2023/02/01 07:36:02;;;;;;;;;;;;;;;11.55;45.22;100229.47;4937975;28;116536;-66
2023/02/01 07:38:29;;;;;;;;;;;;;;;11.58;45.39;100230.00;4922042;28;108924;-66
2023/02/01 07:41:01;;;;;;;;;;;;;;;11.55;45.48;100221.38;4937074;28;98686;-66
2023/02/01 07:43:28;;;;;;;;;;;;;;;11.54;45.60;100221.63;4921807;28;99327;-66
2023/02/01 07:45:54;;;;;;;;;;;;;;;11.55;45.75;100221.38;4923192;28;98244;-66
2023/02/01 07:48:21;;;;;;;;;;;;;;;11.58;45.60;100211.09;4921379;28;112218;-66
2023/02/01 07:50:47;;;;;;;;;;;;;;;11.58;45.36;100216.50;4923734;28;98783;-66
2023/02/01 07:53:13;;;;;;;;;;;;;;;11.55;45.76;100205.19;4937792;28;98246;-67
2023/02/01 07:55:40;;;;;;;;;;;;;;;11.57;45.59;100206.78;4920161;28;117146;-67
2023/02/01 07:58:05;;;;;;;;;;;;;;;11.57;45.40;100201.38;4936066;28;98103;-66
2023/02/01 08:03:16;;;;;;;;;;;;;;;11.56;45.28;100197.88;4921327;28;97935;-66
2023/02/01 08:05:42;;;;;;;;;;;;;;;11.58;45.56;100201.09;4916724;28;114910;-66
2023/02/01 08:08:08;;;;;;;;;;;;;;;11.60;45.34;100190.03;4936751;28;128593;-66
2023/02/01 08:10:34;;;;;;;;;;;;;;;11.60;45.42;100180.03;4921231;28;98371;-66
2023/02/01 08:13:01;;;;;;;;;;;;;;;11.59;45.46;100180.28;4919040;28;97905;-66
2023/02/01 08:15:28;;;;;;;;;;;;;;;11.63;45.33;100178.66;4921747;28;98061;-67
2023/02/01 08:17:58;;;;;;;;;;;;;;;11.61;45.47;100176.25;4906074;28;106669;-65
2023/02/01 08:20:25;;;;;;;;;;;;;;;11.60;45.48;100176.53;4920084;28;98036;-66
2023/02/01 08:22:51;;;;;;;;;;;;;;;11.60;45.55;100173.84;4922588;28;98157;-66
2023/02/01 08:25:17;;;;;;;;;;;;;;;11.59;45.44;100173.00;4933391;28;117469;-66
2023/02/01 08:27:43;;;;;;;;;;;;;;;11.57;45.47;100175.19;4934259;28;116459;-65
2023/02/01 08:30:11;;;;;;;;;;;;;;;11.55;45.51;100163.84;4922672;28;115897;-65
2023/02/01 08:32:37;;;;;;;;;;;;;;;11.55;45.52;100164.69;4932660;28;119898;-66
2023/02/01 08:35:04;;;;;;;;;;;;;;;11.55;45.50;100158.47;4919940;28;103315;-65
2023/02/01 08:37:30;;;;;;;;;;;;;;;11.55;45.56;100155.75;4922372;28;98397;-66
2023/02/01 08:39:56;;;;;;;;;;;;;;;11.55;45.39;100164.69;4934238;28;98063;-66
2023/02/01 08:45:07;;;;;;;;;;;;;;;11.62;45.44;100155.44;4922124;28;98386;-65
2023/02/01 08:47:33;;;;;;;;;;;;;;;11.68;45.35;100141.63;4936954;28;98125;-66
2023/02/01 08:49:59;;;;;;;;;;;;;;;11.71;45.16;100154.59;4902320;28;113796;-66
2023/02/01 08:52:25;;;;;;;;;;;;;;;11.79;45.18;100145.06;4919191;28;127933;-66
2023/02/01 08:54:51;;;;;;;;;;;;;;;11.85;45.10;100135.84;4918888;28;117187;-66
2023/02/01 08:57:17;;;;;;;;;;;;;;;11.89;45.37;100130.69;4919912;28;125138;-66
2023/02/01 08:59:46;;;;;;;;;;;;;;;11.90;45.16;100129.59;4936969;28;97884;-66
2023/02/01 09:02:15;;;;;;;;;;;;;;;11.93;45.20;100124.44;4919437;28;99245;-66
2023/02/01 09:04:41;;;;;;;;;;;;;;;11.98;45.12;100129.78;4935065;28;108410;-66
2023/02/01 09:07:08;;;;;;;;;;;;;;;12.00;45.14;100116.00;4918824;28;128810;-66
2023/02/01 09:09:34;;;;;;;;;;;;;;;12.02;45.27;100119.22;4934896;28;98186;-66
2023/02/01 09:12:00;;;;;;;;;;;;;;;11.97;45.22;100119.28;4923807;28;108608;-66
2023/02/01 09:14:26;;;;;;;;;;;;;;;11.97;45.21;100127.38;4919271;28;117729;-66
2023/02/01 09:16:51;;;;;;;;;;;;;;;11.96;45.07;100113.06;4931293;28;128197;-66
2023/02/01 09:19:18;;;;;;;;;;;;;;;11.96;45.38;100104.16;4921101;28;98010;-65
2023/02/01 09:21:43;;;;;;;;;;;;;;;11.97;45.16;100105.75;4936796;28;97974;-65
2023/02/01 09:24:13;;;;;;;;;;;;;;;11.99;45.37;100115.22;4936388;28;116332;-65
2023/02/01 09:26:38;;;;;;;;;;;;;;;12.07;45.18;100104.88;4910257;28;98345;-65
2023/02/01 09:29:09;;;;;;;;;;;;;;;12.07;45.17;100111.09;4901078;28;129572;-66
2023/02/01 09:31:36;;;;;;;;;;;;;;;12.06;45.34;100112.16;4922874;28;98324;-66
2023/02/01 09:34:02;;;;;;;;;;;;;;;12.02;45.40;100120.03;4920623;28;104276;-65
2023/02/01 09:36:28;;;;;;;;;;;;;;;11.98;45.40;100132.47;4934026;28;125503;-65
2023/02/01 09:38:54;;;;;;;;;;;;;;;11.95;45.39;100137.66;4930928;28;98390;-66
2023/02/01 09:41:39;;;;;;;;;;;;;;;11.90;45.36;100140.41;4922631;28;128833;-65
2023/02/01 09:44:23;;;;;;;;;;;;;;;11.89;45.42;100153.09;4938580;28;98058;-66
2023/02/01 09:46:51;;;;;;;;;;;;;;;11.88;45.35;100154.19;4936514;28;98267;-66
2023/02/01 09:49:21;;;;;;;;;;;;;;;11.89;45.38;100147.69;4935229;28;98322;-65
2023/02/01 09:51:48;;;;;;;;;;;;;;;11.90;45.33;100149.31;4921705;28;116292;-65
2023/02/01 09:54:37;;;;;;;;;;;;;;;11.88;45.32;100159.59;4938055;28;111506;-65
2023/02/01 09:57:24;;;;;;;;;;;;;;;11.88;45.19;100165.00;4933539;28;98546;-65
2023/02/01 09:59:56;;;;;;;;;;;;;;;11.90;45.50;100164.69;4922454;28;99317;-65
2023/02/01 10:02:24;;;;;;;;;;;;;;;11.88;45.43;100164.19;4923095;28;99191;-66
2023/02/01 10:04:52;;;;;;;;;;;;;;;11.86;45.37;100188.78;4937777;28;110276;-66
2023/02/01 10:07:36;;;;;;;;;;;;;;;11.85;45.29;100180.97;4923752;28;101319;-66
2023/02/01 10:10:10;;;;;;;;;;;;;;;11.86;45.42;100174.47;4938268;28;98743;-65
2023/02/01 10:13:01;;;;;;;;;;;;;;;11.86;45.39;100196.06;4924696;28;98106;-66
2023/02/01 10:15:49;;;;;;;;;;;;;;;11.88;45.33;100183.91;4922508;28;110440;-66
2023/02/01 10:18:53;;;;;;;;;;;;;;;11.90;45.28;100197.13;4937834;28;98255;-66
2023/02/01 10:21:31;;;;;;;;;;;;;;;11.88;45.21;100202.81;4923089;28;98294;-66
2023/02/01 10:24:37;;;;;;;;;;;;;;;11.90;45.34;100191.72;4936417;28;97920;-66
2023/02/01 10:27:12;;;;;;;;;;;;;;;11.90;45.69;100194.41;4950406;28;99810;-65
2023/02/01 10:29:39;;;;;;;;;;;;;;;11.90;45.30;100203.31;4941101;28;100033;-65
2023/02/01 10:32:14;;;;;;;;;;;;;;;11.91;45.33;100204.16;4907617;28;112972;-67
2023/02/01 10:34:40;;;;;;;;;;;;;;;11.88;45.25;100194.72;4923743;28;98003;-65
2023/02/01 10:37:26;;;;;;;;;;;;;;;11.94;45.47;100200.88;4908258;28;98197;-66
2023/02/01 10:39:57;;;;;;;;;;;;;;;11.99;45.22;100198.13;4920266;28;104968;-66
2023/02/01 10:42:25;;;;;;;;;;;;;;;11.99;45.45;100200.84;4920552;28;98888;-66
2023/02/01 10:44:52;;;;;;;;;;;;;;;12.00;45.36;100199.75;4937798;28;98180;-66
2023/02/01 10:47:18;;;;;;;;;;;;;;;12.04;45.49;100209.69;4937033;28;99184;-66
2023/02/01 10:49:56;;;;;;;;;;;;;;;12.04;45.36;100206.19;4935053;28;127584;-66
2023/02/01 10:52:43;;;;;;;;;;;;;;;12.05;45.39;100202.41;4922290;28;121980;-65
2023/02/01 10:55:39;;;;;;;;;;;;;;;12.08;45.10;100217.25;4921834;28;98161;-65
2023/02/01 10:58:15;;;;;;;;;;;;;;;12.17;45.17;100229.84;4925563;28;98062;-66
2023/02/01 11:00:53;;;;;;;;;;;;;;;12.21;45.22;100228.19;4923369;28;98608;-66
2023/02/01 11:03:33;;;;;;;;;;;;;;;12.31;44.98;100231.91;4938823;28;98344;-65
2023/02/01 11:06:02;;;;;;;;;;;;;;;12.35;44.97;100227.53;4898117;28;108234;-66
2023/02/01 11:08:28;;;;;;;;;;;;;;;12.43;45.01;100226.94;4923984;28;106386;-66
2023/02/01 11:11:02;;;;;;;;;;;;;;;12.40;44.96;100222.88;4918977;28;127691;-66
2023/02/01 11:13:31;;;;;;;;;;;;;;;12.47;45.06;100222.56;4939041;28;98479;-66
2023/02/01 11:15:57;;;;;;;;;;;;;;;12.52;44.96;100222.50;4923166;28;97926;-66
2023/02/01 11:18:28;;;;;;;;;;;;;;;12.49;45.29;100231.19;4919198;28;117662;-67
2023/02/01 11:20:55;;;;;;;;;;;;;;;12.48;45.11;100232.28;4906715;28;98192;-66
2023/02/01 11:23:28;;;;;;;;;;;;;;;12.58;45.14;100212.47;4939158;28;98505;-67
2023/02/01 11:25:58;;;;;;;;;;;;;;;12.62;45.15;100221.59;4921659;28;98096;-66
2023/02/01 11:28:33;;;;;;;;;;;;;;;12.61;45.17;100231.59;4923914;28;100050;-67
2023/02/01 11:31:05;;;;;;;;;;;;;;;12.95;44.52;100225.28;4921998;28;98065;-67
2023/02/01 11:33:34;;;;;;;;;;;;;;;13.15;44.36;100216.09;4922310;28;120415;-67
2023/02/01 11:36:17;;;;;;;;;;;;;;;13.01;44.80;100211.41;4938253;28;98985;-67
2023/02/01 11:38:51;;;;;;;;;;;;;;;12.96;44.83;100203.34;4935821;28;107535;-67
2023/02/01 11:41:25;;;;;;;;;;;;;;;12.88;44.97;100211.28;4938944;28;98674;-66
2023/02/01 11:43:56;;;;;;;;;;;;;;;12.82;45.09;100213.25;4937771;28;115768;-67
2023/02/01 11:46:30;;;;;;;;;;;;;;;12.78;45.23;100204.13;4921539;28;98748;-67
2023/02/01 11:48:57;;;;;;;;;;;;;;;12.73;45.30;100196.03;4920276;28;98429;-66
2023/02/01 11:51:53;;;;;;;;;;;;;;;12.71;45.35;100199.03;4939419;28;99505;-66
2023/02/01 11:54:54;;;;;;;;;;;;;;;12.71;45.19;100207.16;4938393;28;98977;-67
2023/02/01 11:57:28;;;;;;;;;;;;;;;12.67;45.14;100208.03;4938986;28;98193;-67
2023/02/01 12:00:00;;;;;;;;;;;;;;;12.69;45.11;100195.84;4927601;28;97916;-66
2023/02/01 12:02:47;;;;;;;;;;;;;;;12.68;45.36;100196.91;4940109;28;98300;-66
2023/02/01 12:05:32;;;;;;;;;;;;;;;12.64;45.41;100216.69;4939117;28;99441;-66
2023/02/01 12:08:42;;;;;;;;;;;;;;;12.63;45.37;100213.19;4941273;28;98029;-67
2023/02/01 12:11:27;;;;;;;;;;;;;;;12.84;45.11;100210.25;4923822;28;98270;-66
2023/02/01 12:14:22;;;;;;;;;;;;;;;12.89;44.78;100215.59;4938859;28;121783;-67
2023/02/01 12:17:22;;;;;;;;;;;;;;;12.98;44.88;100203.06;4940533;28;124085;-66
2023/02/01 12:20:13;;;;;;;;;;;;;;;13.14;44.23;100200.97;4907515;28;98392;-67
2023/02/01 12:22:57;;;;;;;;;;;;;;;13.19;44.66;100204.41;4923897;28;107997;-67
2023/02/01 12:25:34;;;;;;;;;;;;;;;13.19;44.66;100206.31;4905660;28;99655;-67
2023/02/01 12:28:25;;;;;;;;;;;;;;;13.07;45.21;100214.84;4941531;28;98284;-67
2023/02/01 12:31:32;;;;;;;;;;;;;;;12.96;45.14;100216.88;4937554;28;98148;-66
2023/02/01 12:34:21;;;;;;;;;;;;;;;12.86;45.39;100189.94;4861677;28;98246;-65
2023/02/01 12:37:05;;;;;;;;;;;;;;;12.84;45.32;100175.91;4858825;28;98859;-65
2023/02/01 12:39:32;;;;;;;;;;;;;;;12.92;45.03;100186.06;4900649;28;99823;-66
2023/02/01 12:42:09;;;;;;;;;;;;;;;13.02;45.13;100175.13;4936898;28;98422;-66
2023/02/01 12:44:51;;;;;;;;;;;;;;;13.07;45.25;100174.25;4937733;28;112496;-66
2023/02/01 12:47:24;;;;;;;;;;;;;;;13.18;44.85;100164.13;4918054;28;98549;-66
2023/02/01 12:50:05;;;;;;;;;;;;;;;13.26;45.09;100161.59;4918842;28;122996;-66
2023/02/01 12:52:39;;;;;;;;;;;;;;;13.30;44.71;100171.84;4937233;28;108922;-66
2023/02/01 12:55:17;;;;;;;;;;;;;;;13.18;44.96;100164.13;4936104;28;109958;-67
2023/02/01 12:57:48;;;;;;;;;;;;;;;13.16;45.41;100150.06;4935141;28;99644;-66
2023/02/01 13:00:26;;;;;;;;;;;;;;;13.22;45.09;100157.03;4905560;28;124125;-66
2023/02/01 13:03:00;;;;;;;;;;;;;;;13.28;44.87;100158.56;4935877;28;98553;-65
2023/02/01 13:05:44;;;;;;;;;;;;;;;13.25;44.82;100151.88;4938820;28;97974;-65
2023/02/01 13:08:24;;;;;;;;;;;;;;;13.29;45.12;100143.16;4921927;28;114433;-65
2023/02/01 13:11:05;;;;;;;;;;;;;;;13.45;44.87;100136.41;4925145;28;98178;-65
2023/02/01 13:13:46;;;;;;;;;;;;;;;13.51;44.83;100135.22;4924122;28;97890;-65
2023/02/01 13:16:32;;;;;;;;;;;;;;;13.56;44.66;100134.34;4921321;28;101882;-66
2023/02/01 13:19:24;;;;;;;;;;;;;;;13.55;44.88;100138.16;4926579;28;99060;-66
2023/02/01 13:21:55;;;;;;;;;;;;;;;13.48;45.00;100128.50;4927196;28;112798;-66